createdAt,value
2018-12-15T00:00:49.630Z,101634.20
2018-12-15T00:03:17.137Z,101634.53
2018-12-15T00:05:44.711Z,101635.96
2018-12-15T00:08:12.237Z,101635.79
2018-12-15T00:10:39.732Z,101635.38
2018-12-15T00:13:07.645Z,101633.59
2018-12-15T00:15:35.449Z,101635.79
2018-12-15T00:18:02.999Z,101627.30
2018-12-15T00:20:30.499Z,101633.06
2018-12-15T00:22:58.486Z,101637.09
2018-12-15T00:25:25.983Z,101630.16
2018-12-15T00:27:53.539Z,101632.47
2018-12-15T00:30:21.067Z,101632.06
2018-12-15T00:32:48.557Z,101633.32
2018-12-15T00:35:16.025Z,101639.61
2018-12-15T00:37:43.515Z,101630.33
2018-12-15T00:40:10.999Z,101633.17
2018-12-15T00:42:38.471Z,101631.25
2018-12-15T00:45:06.088Z,101625.44
2018-12-15T00:47:33.601Z,101626.91
2018-12-15T00:50:01.211Z,101629.95
2018-12-15T00:52:28.701Z,101640.55
2018-12-15T00:54:56.178Z,101640.22
2018-12-15T00:57:23.716Z,101639.13
2018-12-15T00:59:51.301Z,101640.14
2018-12-15T01:02:18.815Z,101645.09
2018-12-15T01:04:46.265Z,101643.06
2018-12-15T01:07:14.204Z,101644.00
2018-12-15T01:09:41.686Z,101646.11
2018-12-15T01:12:09.816Z,101638.20
2018-12-15T01:14:37.282Z,101648.27
2018-12-15T01:17:04.772Z,101645.38
2018-12-15T01:19:32.263Z,101647.69
2018-12-15T01:21:59.756Z,101653.58
2018-12-15T01:24:27.250Z,101656.50
2018-12-15T01:26:55.593Z,101660.08
2018-12-15T01:29:23.057Z,101660.69
2018-12-15T01:31:50.512Z,101654.59
2018-12-15T01:34:18.036Z,101659.55
2018-12-15T01:36:46.154Z,101663.48
2018-12-15T01:39:13.641Z,101666.33
2018-12-15T01:41:41.559Z,101663.00
2018-12-15T01:44:09.064Z,101672.30
2018-12-15T01:46:36.587Z,101669.70
2018-12-15T01:49:04.168Z,101674.33
2018-12-15T01:51:31.810Z,101675.91
2018-12-15T01:53:59.312Z,101670.55
2018-12-15T01:56:27.829Z,101676.52
2018-12-15T01:58:55.308Z,101674.36
2018-12-15T02:01:22.787Z,101680.70
2018-12-15T02:03:50.252Z,101673.80
2018-12-15T02:06:18.077Z,101673.72
2018-12-15T02:08:45.633Z,101680.95
2018-12-15T02:11:13.517Z,101677.66
2018-12-15T02:13:41.049Z,101675.51
2018-12-15T02:16:08.519Z,101678.42
2018-12-15T02:18:35.998Z,101680.17
2018-12-15T02:21:03.579Z,101674.86
2018-12-15T02:23:31.098Z,101677.00
2018-12-15T02:25:58.565Z,101675.21
2018-12-15T02:28:26.115Z,101677.58
2018-12-15T02:30:53.594Z,101678.38
2018-12-15T02:33:21.058Z,101673.22
2018-12-15T02:35:48.540Z,101676.44
2018-12-15T02:38:16.053Z,101674.00
2018-12-15T02:40:43.559Z,101672.13
2018-12-15T02:43:11.109Z,101675.71
2018-12-15T02:45:39.267Z,101680.50
2018-12-15T02:48:06.752Z,101676.72
2018-12-15T02:50:34.262Z,101675.51
2018-12-15T02:53:01.830Z,101673.87
2018-12-15T02:55:29.298Z,101673.55
2018-12-15T02:57:57.700Z,101675.86
2018-12-15T03:00:25.174Z,101674.81
2018-12-15T03:02:52.697Z,101674.00
2018-12-15T03:05:20.206Z,101675.78
2018-12-15T03:07:47.674Z,101673.34
2018-12-15T03:10:15.141Z,101673.22
2018-12-15T03:12:42.623Z,101673.95
2018-12-15T03:15:10.290Z,101672.09
2018-12-15T03:17:37.815Z,101673.02
2018-12-15T03:20:05.495Z,101667.33
2018-12-15T03:22:32.980Z,101666.07
2018-12-15T03:25:00.456Z,101668.92
2018-12-15T03:27:28.637Z,101667.41
2018-12-15T03:29:56.274Z,101671.11
2018-12-15T03:32:23.756Z,101672.81
2018-12-15T03:34:51.226Z,101667.86
2018-12-15T03:37:18.950Z,101671.38
2018-12-15T03:39:46.495Z,101677.80
2018-12-15T03:42:14.045Z,101678.13
2018-12-15T03:44:41.649Z,101678.28
2018-12-15T03:47:09.127Z,101679.27
2018-12-15T03:49:36.625Z,101676.13
2018-12-15T03:52:04.294Z,101679.21
2018-12-15T03:54:31.786Z,101675.03
2018-12-15T03:56:59.254Z,101674.88
2018-12-15T03:59:27.114Z,101677.95
2018-12-15T04:01:54.649Z,101681.25
2018-12-15T04:04:22.193Z,101676.70
2018-12-15T04:06:49.662Z,101681.13
2018-12-15T04:09:17.168Z,101678.53
2018-12-15T04:11:44.664Z,101678.13
2018-12-15T04:14:12.151Z,101682.26
2018-12-15T04:16:39.630Z,101689.94
2018-12-15T04:19:07.251Z,101687.42
2018-12-15T04:21:35.107Z,101697.94
2018-12-15T04:24:02.973Z,101695.10
2018-12-15T04:26:30.463Z,101699.81
2018-12-15T04:28:58.443Z,101698.75
2018-12-15T04:31:25.929Z,101698.55
2018-12-15T04:33:53.437Z,101700.02
2018-12-15T04:36:21.008Z,101699.41
2018-12-15T04:38:48.487Z,101699.08
2018-12-15T04:41:16.031Z,101703.14
2018-12-15T04:43:43.554Z,101696.84
2018-12-15T04:46:12.505Z,101697.50
2018-12-15T04:48:40.025Z,101691.25
2018-12-15T04:51:07.584Z,101698.67
2018-12-15T04:53:35.311Z,101700.27
2018-12-15T04:56:02.823Z,101702.45
2018-12-15T04:58:30.289Z,101700.54
2018-12-15T05:00:57.828Z,101706.35
2018-12-15T05:03:25.352Z,101702.05
2018-12-15T05:05:52.836Z,101704.40
2018-12-15T05:08:20.355Z,101709.28
2018-12-15T05:10:47.852Z,101710.61
2018-12-15T05:13:15.914Z,101714.06
2018-12-15T05:15:43.389Z,101709.61
2018-12-15T05:18:18.017Z,101712.05
2018-12-15T05:20:41.165Z,101716.84
2018-12-15T05:23:08.678Z,101715.58
2018-12-15T05:25:36.607Z,101716.50
2018-12-15T05:28:04.196Z,101714.84
2018-12-15T05:30:31.675Z,101710.69
2018-12-15T05:32:59.273Z,101711.14
2018-12-15T05:35:26.831Z,101714.19
2018-12-15T05:37:54.307Z,101712.33
2018-12-15T05:40:22.366Z,101723.45
2018-12-15T05:42:49.844Z,101724.19
2018-12-15T05:45:19.131Z,101721.14
2018-12-15T05:47:46.680Z,101718.30
2018-12-15T05:50:14.164Z,101725.16
2018-12-15T05:52:41.632Z,101723.01
2018-12-15T05:55:09.139Z,101728.70
2018-12-15T05:57:36.967Z,101718.75
2018-12-15T06:00:08.052Z,101722.52
2018-12-15T06:02:35.996Z,101725.48
2018-12-15T06:05:04.446Z,101722.64
2018-12-15T06:07:32.391Z,101721.87
2018-12-15T06:09:59.924Z,101714.84
2018-12-15T06:12:27.405Z,101719.88
2018-12-15T06:14:54.900Z,101719.27
2018-12-15T06:17:22.441Z,101722.20
2018-12-15T06:19:49.925Z,101718.91
2018-12-15T06:22:17.451Z,101717.81
2018-12-15T06:24:44.923Z,101717.16
2018-12-15T06:27:12.415Z,101720.66
2018-12-15T06:29:39.920Z,101721.47
2018-12-15T06:32:07.433Z,101733.45
2018-12-15T06:34:34.926Z,101728.00
2018-12-15T06:37:02.390Z,101724.95
2018-12-15T06:39:29.849Z,101728.48
2018-12-15T06:41:57.351Z,101724.84
2018-12-15T06:44:24.819Z,101733.64
2018-12-15T06:46:52.337Z,101729.06
2018-12-15T06:49:19.797Z,101732.27
2018-12-15T06:51:48.074Z,101732.76
2018-12-15T06:54:15.712Z,101736.74
2018-12-15T06:56:44.622Z,101733.45
2018-12-15T06:59:12.183Z,101734.70
2018-12-15T07:01:42.299Z,101734.22
2018-12-15T07:04:10.380Z,101732.64
2018-12-15T07:06:39.245Z,101730.20
2018-12-15T07:09:07.826Z,101739.58
2018-12-15T07:11:36.044Z,101735.80
2018-12-15T07:14:03.680Z,101738.80
2018-12-15T07:16:31.353Z,101734.75
2018-12-15T07:18:59.332Z,101741.65
2018-12-15T07:21:26.803Z,101734.70
2018-12-15T07:23:59.868Z,101743.11
2018-12-15T07:26:27.337Z,101740.47
2018-12-15T07:28:54.887Z,101747.30
2018-12-15T07:31:22.590Z,101742.91
2018-12-15T07:33:50.098Z,101735.76
2018-12-15T07:36:17.617Z,101741.45
2018-12-15T07:38:45.112Z,101741.78
2018-12-15T07:41:12.603Z,101745.10
2018-12-15T07:43:40.235Z,101751.52
2018-12-15T07:46:07.814Z,101743.97
2018-12-15T07:48:35.287Z,101745.71
2018-12-15T07:51:02.808Z,101744.78
2018-12-15T07:53:30.477Z,101733.58
2018-12-15T07:55:57.956Z,101740.27
2018-12-15T07:58:25.587Z,101732.14
2018-12-15T08:00:53.088Z,101731.66
2018-12-15T08:03:21.341Z,101736.33
2018-12-15T08:05:48.819Z,101749.28
2018-12-15T08:08:21.081Z,101744.73
2018-12-15T08:10:54.067Z,101749.24
2018-12-15T08:13:24.250Z,101740.34
2018-12-15T08:15:51.743Z,101743.19
2018-12-15T08:18:19.307Z,101742.55
2018-12-15T08:20:46.829Z,101740.47
2018-12-15T08:23:19.816Z,101744.86
2018-12-15T08:25:47.340Z,101747.86
2018-12-15T08:28:15.001Z,101745.02
2018-12-15T08:30:42.498Z,101758.71
2018-12-15T08:33:10.830Z,101756.48
2018-12-15T08:35:38.305Z,101751.31
2018-12-15T08:38:05.920Z,101749.05
2018-12-15T08:40:33.620Z,101754.89
2018-12-15T08:43:01.179Z,101757.20
2018-12-15T08:45:28.754Z,101756.15
2018-12-15T08:47:56.801Z,101755.91
2018-12-15T08:50:24.289Z,101753.18
2018-12-15T08:52:52.155Z,101758.27
2018-12-15T08:55:19.764Z,101761.99
2018-12-15T08:57:47.294Z,101764.16
2018-12-15T09:00:14.795Z,101759.13
2018-12-15T09:02:42.279Z,101758.87
2018-12-15T09:05:09.789Z,101753.95
2018-12-15T09:07:37.276Z,101758.27
2018-12-15T09:10:07.151Z,101760.58
2018-12-15T09:12:34.749Z,101764.97
2018-12-15T09:15:02.280Z,101762.12
2018-12-15T09:17:29.864Z,101754.77
2018-12-15T09:19:57.350Z,101750.21
2018-12-15T09:22:32.931Z,101752.50
2018-12-15T09:25:00.396Z,101754.23
2018-12-15T09:27:27.951Z,101750.78
2018-12-15T09:29:55.538Z,101747.94
2018-12-15T09:32:23.171Z,101754.08
2018-12-15T09:34:52.137Z,101749.77
2018-12-15T09:37:19.721Z,101750.13
2018-12-15T09:39:47.316Z,101750.86
2018-12-15T09:42:14.839Z,101745.87
2018-12-15T09:44:42.613Z,101752.83
2018-12-15T09:47:10.967Z,101749.48
2018-12-15T09:49:38.540Z,101746.15
2018-12-15T09:52:06.001Z,101748.95
2018-12-15T09:54:36.517Z,101741.77
2018-12-15T09:57:04.645Z,101745.98
2018-12-15T09:59:32.195Z,101752.88
2018-12-15T10:01:59.762Z,101755.57
2018-12-15T10:04:27.259Z,101754.84
2018-12-15T10:06:54.860Z,101756.83
2018-12-15T10:09:22.351Z,101753.70
2018-12-15T10:11:49.828Z,101753.05
2018-12-15T10:14:17.338Z,101751.19
2018-12-15T10:16:45.087Z,101737.98
2018-12-15T10:19:12.582Z,101736.45
2018-12-15T10:21:40.054Z,101738.87
2018-12-15T10:24:07.549Z,101731.57
2018-12-15T10:26:35.035Z,101722.83
2018-12-15T10:29:03.612Z,101731.89
2018-12-15T10:31:36.935Z,101724.34
2018-12-15T10:34:04.913Z,101724.14
2018-12-15T10:36:32.521Z,101717.16
2018-12-15T10:39:00.128Z,101715.13
2018-12-15T10:41:27.733Z,101713.21
2018-12-15T10:43:55.240Z,101711.02
2018-12-15T10:46:22.713Z,101714.19
2018-12-15T10:48:50.177Z,101710.01
2018-12-15T10:51:17.744Z,101706.64
2018-12-15T10:53:45.674Z,101709.88
2018-12-15T10:56:13.973Z,101702.78
2018-12-15T10:58:41.471Z,101703.39
2018-12-15T11:01:23.501Z,101703.19
2018-12-15T11:03:51.089Z,101704.13
2018-12-15T11:06:18.760Z,101692.88
2018-12-15T11:08:46.243Z,101688.05
2018-12-15T11:11:13.744Z,101689.75
2018-12-15T11:13:41.221Z,101693.48
2018-12-15T11:16:08.807Z,101692.88
2018-12-15T11:18:36.351Z,101696.94
2018-12-15T11:21:03.821Z,101685.20
2018-12-15T11:23:31.352Z,101686.79
2018-12-15T11:25:58.835Z,101680.22
2018-12-15T11:28:26.366Z,101684.16
2018-12-15T11:30:53.818Z,101681.59
2018-12-15T11:33:21.323Z,101675.30
2018-12-15T11:35:48.797Z,101675.51
2018-12-15T11:38:16.305Z,101679.36
2018-12-15T11:40:43.880Z,101675.51
2018-12-15T11:43:11.379Z,101676.89
2018-12-15T11:45:38.931Z,101676.84
2018-12-15T11:48:06.576Z,101673.87
2018-12-15T11:50:34.151Z,101680.17
2018-12-15T11:53:01.691Z,101672.62
2018-12-15T11:55:29.249Z,101669.42
2018-12-15T11:57:56.766Z,101673.59
2018-12-15T12:00:24.329Z,101658.34
2018-12-15T12:02:51.912Z,101658.05
2018-12-15T12:05:19.443Z,101655.77
2018-12-15T12:07:47.027Z,101661.62
2018-12-15T12:10:14.626Z,101652.12
2018-12-15T12:12:42.237Z,101647.81
2018-12-15T12:15:09.783Z,101652.98
2018-12-15T12:17:37.262Z,101647.29
2018-12-15T12:20:06.721Z,101647.29
2018-12-15T12:22:34.332Z,101647.50
2018-12-15T12:25:01.867Z,101650.73
2018-12-15T12:27:29.360Z,101649.03
2018-12-15T12:29:56.909Z,101646.56
2018-12-15T12:32:24.987Z,101641.00
2018-12-15T12:34:53.253Z,101635.79
2018-12-15T12:37:20.732Z,101643.11
2018-12-15T12:39:48.222Z,101639.41
2018-12-15T12:42:15.741Z,101639.44
2018-12-15T12:44:43.310Z,101639.03
2018-12-15T12:47:10.794Z,101634.25
2018-12-15T12:49:38.316Z,101633.84
2018-12-15T12:52:05.823Z,101630.92
2018-12-15T12:54:33.884Z,101626.70
2018-12-15T12:57:01.390Z,101624.30
2018-12-15T12:59:29.412Z,101617.23
2018-12-15T13:01:57.420Z,101624.11
2018-12-15T13:04:24.917Z,101623.53
2018-12-15T13:06:54.281Z,101626.52
2018-12-15T13:09:21.790Z,101628.95
2018-12-15T13:11:49.280Z,101624.58
2018-12-15T13:14:16.749Z,101618.41
2018-12-15T13:16:44.270Z,101626.57
2018-12-15T13:19:11.772Z,101622.72
2018-12-15T13:21:39.262Z,101624.00
2018-12-15T13:24:06.866Z,101623.11
2018-12-15T13:26:34.363Z,101621.13
2018-12-15T13:29:02.177Z,101620.92
2018-12-15T13:31:29.686Z,101618.41
2018-12-15T13:33:57.156Z,101604.89
2018-12-15T13:36:24.691Z,101610.61
2018-12-15T13:38:52.271Z,101609.36
2018-12-15T13:41:20.441Z,101608.66
2018-12-15T13:43:47.922Z,101610.00
2018-12-15T13:46:15.651Z,101606.52
2018-12-15T13:48:43.105Z,101608.34
2018-12-15T13:51:10.651Z,101595.87
2018-12-15T13:53:38.102Z,101601.48
2018-12-15T13:56:06.139Z,101602.58
2018-12-15T13:58:33.755Z,101606.84
2018-12-15T14:01:02.397Z,101602.78
2018-12-15T14:03:29.947Z,101603.06
2018-12-15T14:05:57.445Z,101600.91
2018-12-15T14:08:25.066Z,101602.38
2018-12-15T14:10:52.665Z,101602.91
2018-12-15T14:13:20.185Z,101596.69
2018-12-15T14:15:47.686Z,101595.11
2018-12-15T14:18:15.308Z,101586.95
2018-12-15T14:20:43.274Z,101589.66
2018-12-15T14:23:10.800Z,101588.16
2018-12-15T14:25:39.055Z,101581.70
2018-12-15T14:28:06.824Z,101581.06
2018-12-15T14:30:34.560Z,101580.41
2018-12-15T14:33:03.266Z,101579.40
2018-12-15T14:35:31.074Z,101577.62
2018-12-15T14:37:58.649Z,101574.95
2018-12-15T14:40:26.623Z,101580.27
2018-12-15T14:42:54.988Z,101572.43
2018-12-15T14:45:22.910Z,101577.27
2018-12-15T14:47:52.063Z,101569.72
2018-12-15T14:50:23.552Z,101579.26
2018-12-15T14:52:50.777Z,101565.27
2018-12-15T14:55:19.591Z,101562.02
2018-12-15T14:57:47.418Z,101560.36
2018-12-15T15:00:15.225Z,101559.72
2018-12-15T15:02:43.661Z,101561.02
2018-12-15T15:05:12.488Z,101555.02
2018-12-15T15:07:44.131Z,101552.95
2018-12-15T15:10:12.031Z,101546.81
2018-12-15T15:12:39.828Z,101542.55
2018-12-15T15:15:07.420Z,101541.77
2018-12-15T15:17:35.268Z,101537.52
2018-12-15T15:20:05.911Z,101529.78
2018-12-15T15:22:34.079Z,101535.76
2018-12-15T15:25:01.843Z,101529.13
2018-12-15T15:27:46.998Z,101527.34
2018-12-15T15:30:14.663Z,101524.94
2018-12-15T15:32:42.339Z,101534.89
2018-12-15T15:35:11.531Z,101519.25
2018-12-15T15:37:39.020Z,101521.44
2018-12-15T15:40:07.815Z,101521.96
2018-12-15T15:42:36.825Z,101518.84
2018-12-15T15:45:05.461Z,101513.89
2018-12-15T15:47:33.107Z,101507.05
2018-12-15T15:50:02.263Z,101503.61
2018-12-15T15:52:29.972Z,101505.88
2018-12-15T15:54:57.720Z,101496.22
2018-12-15T15:57:25.437Z,101490.97
2018-12-15T15:59:53.911Z,101484.69
2018-12-15T16:02:21.650Z,101491.78
2018-12-15T16:04:49.448Z,101486.80
2018-12-15T16:07:17.190Z,101482.83
2018-12-15T16:09:45.205Z,101489.39
2018-12-15T16:12:13.226Z,101490.31
2018-12-15T16:14:41.108Z,101473.36
2018-12-15T16:17:08.973Z,101472.59
2018-12-15T16:19:36.616Z,101469.73
2018-12-15T16:22:05.031Z,101469.59
2018-12-15T16:24:33.221Z,101465.96
2018-12-15T16:27:01.057Z,101464.11
2018-12-15T16:29:28.899Z,101458.27
2018-12-15T16:31:56.701Z,101455.89
2018-12-15T16:34:25.171Z,101444.97
2018-12-15T16:36:53.488Z,101445.57
2018-12-15T16:39:21.223Z,101449.15
2018-12-15T16:41:49.431Z,101441.05
2018-12-15T16:44:17.383Z,101442.31
2018-12-15T16:46:45.146Z,101441.45
2018-12-15T16:49:12.677Z,101444.38
2018-12-15T16:51:40.278Z,101435.50
2018-12-15T16:54:08.076Z,101436.02
2018-12-15T16:56:36.217Z,101428.36
2018-12-15T16:59:05.053Z,101426.69
2018-12-15T17:01:34.750Z,101423.06
2018-12-15T17:04:02.608Z,101423.77
2018-12-15T17:06:31.027Z,101427.55
2018-12-15T17:09:00.826Z,101431.20
2018-12-15T17:11:28.947Z,101431.39
2018-12-15T17:13:57.465Z,101428.02
2018-12-15T17:16:25.106Z,101433.72
2018-12-15T17:18:52.808Z,101433.31
2018-12-15T17:21:20.562Z,101426.91
2018-12-15T17:23:49.105Z,101426.25
2018-12-15T17:26:16.725Z,101418.30
2018-12-15T17:28:44.398Z,101422.73
2018-12-15T17:31:12.185Z,101418.62
2018-12-15T17:33:39.665Z,101410.89
2018-12-15T17:36:07.193Z,101403.61
2018-12-15T17:38:34.705Z,101401.54
2018-12-15T17:41:02.209Z,101398.76
2018-12-15T17:43:29.696Z,101401.34
2018-12-15T17:45:58.345Z,101395.27
2018-12-15T17:48:26.197Z,101386.25
2018-12-15T17:50:54.702Z,101376.94
2018-12-15T17:53:22.552Z,101376.41
2018-12-15T17:55:50.129Z,101384.00
2018-12-15T17:58:19.582Z,101382.81
2018-12-15T18:00:48.233Z,101386.92
2018-12-15T18:03:16.867Z,101382.37
2018-12-15T18:05:44.734Z,101385.66
2018-12-15T18:08:12.900Z,101381.96
2018-12-15T18:10:41.696Z,101380.19
2018-12-15T18:13:09.410Z,101379.70
2018-12-15T18:15:37.044Z,101376.08
2018-12-15T18:18:04.556Z,101363.36
2018-12-15T18:20:32.363Z,101363.03
2018-12-15T18:23:00.953Z,101350.45
2018-12-15T18:25:28.430Z,101343.76
2018-12-15T18:27:56.741Z,101348.53
2018-12-15T18:30:24.466Z,101339.61
2018-12-15T18:32:52.215Z,101335.70
2018-12-15T18:35:19.917Z,101330.33
2018-12-15T18:37:48.612Z,101324.97
2018-12-15T18:40:16.336Z,101321.41
2018-12-15T18:42:44.410Z,101321.19
2018-12-15T18:45:12.259Z,101313.39
2018-12-15T18:47:40.047Z,101301.89
2018-12-15T18:50:08.867Z,101306.25
2018-12-15T18:52:37.147Z,101302.48
2018-12-15T18:55:06.042Z,101307.84
2018-12-15T18:57:34.523Z,101301.89
2018-12-15T19:00:02.292Z,101291.08
2018-12-15T19:02:29.956Z,101291.08
2018-12-15T19:04:57.450Z,101285.20
2018-12-15T19:07:25.126Z,101288.23
2018-12-15T19:09:52.935Z,101285.24
2018-12-15T19:12:20.756Z,101282.47
2018-12-15T19:14:48.623Z,101291.27
2018-12-15T19:17:16.290Z,101295.14
2018-12-15T19:19:43.991Z,101286.23
2018-12-15T19:22:11.724Z,101286.23
2018-12-15T19:24:40.490Z,101282.13
2018-12-15T19:27:09.191Z,101273.25
2018-12-15T19:29:38.087Z,101278.24
2018-12-15T19:32:05.846Z,101261.02
2018-12-15T19:34:33.584Z,101259.83
2018-12-15T19:37:02.915Z,101255.47
2018-12-15T19:39:30.664Z,101257.58
2018-12-15T19:41:58.809Z,101260.27
2018-12-15T19:44:28.076Z,101264.41
2018-12-15T19:46:56.239Z,101248.26
2018-12-15T19:49:25.007Z,101245.41
2018-12-15T19:51:52.714Z,101243.37
2018-12-15T19:54:20.424Z,101232.05
2018-12-15T19:56:48.289Z,101231.81
2018-12-15T19:59:17.097Z,101239.44
2018-12-15T20:01:45.486Z,101229.57
2018-12-15T20:04:13.242Z,101225.94
2018-12-15T20:06:40.977Z,101224.20
2018-12-15T20:09:08.635Z,101207.00
2018-12-15T20:11:37.765Z,101214.14
2018-12-15T20:14:05.631Z,101210.33
2018-12-15T20:16:33.980Z,101201.16
2018-12-15T20:19:02.018Z,101198.20
2018-12-15T20:21:35.991Z,101198.88
2018-12-15T20:24:02.832Z,101186.23
2018-12-15T20:26:30.424Z,101186.30
2018-12-15T20:28:58.672Z,101175.97
2018-12-15T20:31:26.360Z,101187.32
2018-12-15T20:33:54.247Z,101176.55
2018-12-15T20:36:21.747Z,101176.14
2018-12-15T20:38:49.335Z,101174.06
2018-12-15T20:41:17.082Z,101159.52
2018-12-15T20:43:45.569Z,101150.17
2018-12-15T20:46:14.753Z,101155.33
2018-12-15T20:48:42.452Z,101149.05
2018-12-15T20:51:11.568Z,101145.14
2018-12-15T20:53:39.805Z,101150.68
2018-12-15T20:56:07.443Z,101135.42
2018-12-15T20:58:37.263Z,101140.55
2018-12-15T21:01:05.675Z,101122.37
2018-12-15T21:03:33.228Z,101112.81
2018-12-15T21:06:01.509Z,101109.79
2018-12-15T21:08:28.989Z,101086.89
2018-12-15T21:10:56.505Z,101095.48
2018-12-15T21:13:23.995Z,101084.34
2018-12-15T21:15:53.758Z,101079.61
2018-12-15T21:18:22.171Z,101078.73
2018-12-15T21:20:49.935Z,101077.19
2018-12-15T21:23:18.398Z,101080.82
2018-12-15T21:25:45.863Z,101076.13
2018-12-15T21:28:14.182Z,101061.29
2018-12-15T21:30:41.775Z,101065.39
2018-12-15T21:33:09.480Z,101070.75
2018-12-15T21:35:37.106Z,101069.05
2018-12-15T21:38:04.720Z,101056.88
2018-12-15T21:40:32.325Z,101064.63
2018-12-15T21:42:59.939Z,101061.78
2018-12-15T21:45:28.688Z,101065.48
2018-12-15T21:47:57.839Z,101056.69
2018-12-15T21:50:25.885Z,101063.46
2018-12-15T21:52:55.208Z,101060.69
2018-12-15T21:55:25.281Z,101053.75
2018-12-15T21:57:58.255Z,101065.45
2018-12-15T22:00:26.429Z,101040.27
2018-12-15T22:02:54.660Z,101045.77
2018-12-15T22:05:22.127Z,101035.88
2018-12-15T22:07:50.056Z,101033.75
2018-12-15T22:10:17.563Z,101025.77
2018-12-15T22:12:45.050Z,101023.82
2018-12-15T22:15:12.598Z,101022.49
2018-12-15T22:17:40.201Z,101022.34
2018-12-15T22:20:09.891Z,101032.39
2018-12-15T22:22:37.438Z,101030.17
2018-12-15T22:25:05.429Z,101028.85
2018-12-15T22:27:32.938Z,101029.77
2018-12-15T22:30:01.071Z,101035.45
2018-12-15T22:32:28.547Z,101035.79
2018-12-15T22:34:56.077Z,101027.52
2018-12-15T22:37:23.554Z,101029.66
2018-12-15T22:39:51.034Z,101011.34
2018-12-15T22:42:18.556Z,101011.39
2018-12-15T22:44:46.038Z,101004.33
2018-12-15T22:47:13.751Z,100994.14
2018-12-15T22:49:41.692Z,101007.17
2018-12-15T22:52:09.941Z,100995.71
2018-12-15T22:54:37.793Z,100971.72
2018-12-15T22:57:05.280Z,100995.71
2018-12-15T22:59:32.986Z,100983.73
2018-12-15T23:02:00.525Z,101003.02
2018-12-15T23:04:28.108Z,100961.24
2018-12-15T23:06:55.600Z,100962.16
2018-12-15T23:09:23.079Z,100954.22
2018-12-15T23:11:50.557Z,100955.87
2018-12-15T23:14:18.497Z,100947.87
2018-12-15T23:16:46.064Z,100941.48
2018-12-15T23:19:13.676Z,100931.55
2018-12-15T23:21:41.309Z,100924.66
2018-12-15T23:24:08.806Z,100907.93
2018-12-15T23:26:36.348Z,100897.72
2018-12-15T23:29:04.352Z,100882.92
2018-12-15T23:31:31.859Z,100880.81
2018-12-15T23:33:59.409Z,100871.19
2018-12-15T23:36:26.943Z,100862.84
2018-12-15T23:38:54.423Z,100852.22
2018-12-15T23:41:21.896Z,100857.37
2018-12-15T23:43:49.804Z,100852.35
2018-12-15T23:46:17.315Z,100840.58
2018-12-15T23:48:44.840Z,100837.16
2018-12-15T23:51:12.320Z,100830.67
2018-12-15T23:53:39.866Z,100817.89
2018-12-15T23:56:07.507Z,100816.36
2018-12-15T23:58:35.516Z,100809.77
